Time;durP1;ratioP1;P1;durP2;ratioP2;P2;SDS_P1;SDS_P2;PMS_P1;PMS_P2;Temp;Humidity;BMP_temperature;BMP_pressure;BME280_temperature;BME280_humidity;BME280_pressure;Samples;Min_cycle;Max_cycle;Signal;HPM_P1;HPM_P2
2023/05/13 00:00:47;;;;;;;17.40;15.60;;;;;21.10;100809.00;;;;2075702;28;20267;-51
2023/05/13 00:01:47;;;;;;;17.30;15.43;;;;;21.10;100807.00;;;;2067749;28;20214;-51
2023/05/13 00:02:47;;;;;;;16.50;14.50;;;;;21.10;100812.00;;;;2084584;28;20247;-49
2023/05/13 00:03:48;;;;;;;16.80;14.70;;;;;21.10;100808.00;;;;2078958;28;20218;-49
2023/05/13 00:04:48;;;;;;;17.00;15.30;;;;;21.00;100811.00;;;;2076919;28;20209;-50
2023/05/13 00:05:49;;;;;;;17.73;15.80;;;;;21.00;100804.00;;;;2084841;28;20242;-51
2023/05/13 00:06:49;;;;;;;16.73;15.03;;;;;21.10;100806.00;;;;2067061;28;20225;-51
2023/05/13 00:07:49;;;;;;;15.97;14.43;;;;;21.10;100831.00;;;;2070431;28;20705;-50
2023/05/13 00:08:50;;;;;;;16.23;14.67;;;;;21.10;100813.00;;;;2075444;28;20628;-49
2023/05/13 00:09:50;;;;;;;17.27;14.97;;;;;21.00;100808.00;;;;2077805;28;20692;-50
2023/05/13 00:10:51;;;;;;;17.10;15.37;;;;;21.10;100812.00;;;;2083622;28;20689;-50
2023/05/13 00:11:51;;;;;;;15.40;13.80;;;;;21.10;100810.00;;;;2067298;28;20312;-50
2023/05/13 00:12:52;;;;;;;15.47;13.93;;;;;21.00;100814.00;;;;2077432;28;20229;-49
2023/05/13 00:13:52;;;;;;;16.50;14.87;;;;;21.10;100813.00;;;;2075245;28;20210;-49
2023/05/13 00:14:52;;;;;;;14.37;13.03;;;;;21.00;100811.00;;;;2077701;28;20213;-50
2023/05/13 00:15:53;;;;;;;16.30;14.63;;;;;21.00;100813.00;;;;2080576;28;20259;-51
2023/05/13 00:16:53;;;;;;;17.43;14.20;;;;;21.00;100807.00;;;;2068713;28;20241;-50
2023/05/13 00:17:53;;;;;;;15.70;14.00;;;;;21.00;100805.00;;;;2077155;28;20206;-50
2023/05/13 00:18:55;;;;;;;15.93;14.40;;;;;21.00;100810.00;;;;2076443;28;20202;-50
2023/05/13 00:19:55;;;;;;;15.80;14.20;;;;;21.00;100812.00;;;;2075695;28;20257;-50
2023/05/13 00:20:55;;;;;;;16.70;14.93;;;;;21.00;100820.00;;;;2076810;28;20270;-51
2023/05/13 00:21:56;;;;;;;15.43;13.93;;;;;21.00;100809.00;;;;2068138;28;20307;-50
2023/05/13 00:22:56;;;;;;;15.10;13.60;;;;;21.00;100809.00;;;;2081633;28;20222;-50
2023/05/13 00:23:56;;;;;;;15.23;13.73;;;;;21.00;100812.00;;;;2077546;28;20241;-50
2023/05/13 00:24:57;;;;;;;15.93;14.30;;;;;21.00;100810.00;;;;2079731;28;20222;-49
2023/05/13 00:25:58;;;;;;;14.63;13.20;;;;;21.00;100812.00;;;;2077556;28;20225;-50
2023/05/13 00:26:58;;;;;;;15.98;14.38;;;;;21.00;100804.00;;;;2075350;28;20224;-50
2023/05/13 00:27:59;;;;;;;14.93;13.10;;;;;21.00;100824.00;;;;2086240;28;20213;-50
2023/05/13 00:28:59;;;;;;;15.17;13.57;;;;;21.00;100815.00;;;;2081352;28;20745;-49
2023/05/13 00:29:59;;;;;;;15.77;13.40;;;;;21.00;100814.00;;;;2076440;28;20213;-50
2023/05/13 00:31:00;;;;;;;13.57;12.17;;;;;21.00;100813.00;;;;2077060;28;20213;-50
2023/05/13 00:32:00;;;;;;;14.60;13.10;;;;;21.00;100762.00;;;;2060543;28;20280;-50
2023/05/13 00:33:00;;;;;;;14.03;12.57;;;;;21.00;100817.00;;;;2077076;28;20602;-50
2023/05/13 00:34:01;;;;;;;12.73;11.43;;;;;21.00;100811.00;;;;2084518;28;20711;-51
2023/05/13 00:35:02;;;;;;;15.00;13.35;;;;;21.00;100805.00;;;;2075105;28;20220;-50
2023/05/13 00:36:03;;;;;;;13.77;12.40;;;;;21.00;100811.00;;;;2071733;28;20206;-50
2023/05/13 00:37:03;;;;;;;13.10;11.80;;;;;20.80;100809.00;;;;2061016;28;20614;-50
2023/05/13 00:38:04;;;;;;;13.27;11.90;;;;;21.00;100818.00;;;;2076569;28;20214;-50
2023/05/13 00:39:04;;;;;;;13.97;12.63;;;;;21.00;100819.00;;;;2076834;28;20701;-50
2023/05/13 00:40:06;;;;;;;14.23;12.83;;;;;21.00;100809.00;;;;2076403;28;20205;-50
2023/05/13 00:41:07;;;;;;;14.95;13.02;;;;;21.00;100806.00;;;;2076594;28;20245;-50
2023/05/13 00:42:09;;;;;;;14.10;12.67;;;;;21.00;100815.00;;;;2066519;28;20279;-49
2023/05/13 00:43:10;;;;;;;13.93;12.43;;;;;21.00;100813.00;;;;2069453;28;20256;-49
2023/05/13 00:44:10;;;;;;;12.63;11.43;;;;;21.00;100813.00;;;;2071987;28;20217;-50
2023/05/13 00:45:10;;;;;;;14.00;12.00;;;;;21.00;100816.00;;;;2077026;28;20222;-50
2023/05/13 00:46:11;;;;;;;13.50;12.10;;;;;21.00;100813.00;;;;2076223;28;20237;-50
2023/05/13 00:47:11;;;;;;;12.33;11.23;;;;;21.00;100812.00;;;;2067070;28;20325;-50
2023/05/13 00:48:11;;;;;;;14.43;12.90;;;;;21.00;100803.00;;;;2074915;28;20217;-50
2023/05/13 00:49:12;;;;;;;12.50;11.30;;;;;21.00;100808.00;;;;2059722;28;20211;-51
2023/05/13 00:50:12;;;;;;;12.80;11.50;;;;;21.00;100818.00;;;;2073984;28;20218;-49
2023/05/13 00:51:13;;;;;;;12.90;11.50;;;;;21.00;100812.00;;;;2076319;28;20229;-50
2023/05/13 00:52:13;;;;;;;12.53;11.33;;;;;21.00;100814.00;;;;2077739;28;20224;-51
2023/05/13 00:53:14;;;;;;;11.67;10.67;;;;;21.00;100814.00;;;;2090673;28;20219;-50
2023/05/13 00:54:14;;;;;;;12.80;11.50;;;;;21.00;100808.00;;;;2086581;28;20209;-49
2023/05/13 00:55:15;;;;;;;12.80;11.60;;;;;20.90;100813.00;;;;2091003;28;20537;-50
2023/05/13 00:56:18;;;;;;;12.10;11.00;;;;;21.00;100807.00;;;;2076765;28;20229;-50
2023/05/13 00:57:20;;;;;;;13.05;11.75;;;;;21.00;100808.00;;;;2077005;28;20320;-49
2023/05/13 00:58:20;;;;;;;12.63;11.32;;;;;21.00;100808.00;;;;2080288;28;20246;-50
2023/05/13 00:59:20;;;;;;;12.13;10.83;;;;;21.00;100811.00;;;;2075716;28;20287;-50
2023/05/13 01:00:20;;;;;;;12.10;10.90;;;;;20.90;100805.00;;;;2070819;28;20232;-50
2023/05/13 01:01:40;;;;;;;11.90;10.70;;;;;21.00;100812.00;;;;2071594;28;20216;-49
2023/05/13 01:02:56;;;;;;;12.45;11.25;;;;;21.00;100808.00;;;;2069555;28;20642;-50
2023/05/13 01:04:21;;;;;;;12.10;11.02;;;;;21.00;100807.00;;;;2076014;28;20227;-50
2023/05/13 01:05:28;;;;;;;12.27;11.10;;;;;21.00;100814.00;;;;2070931;28;20213;-49
2023/05/13 01:06:41;;;;;;;11.70;10.60;;;;;21.00;100808.00;;;;2074734;28;20220;-54
2023/05/13 01:08:03;;;;;;;11.32;10.23;;;;;21.00;100804.00;;;;2074951;28;20225;-49
2023/05/13 01:09:14;;;;;;;11.73;10.63;;;;;21.00;100807.00;;;;2076357;28;20754;-48
2023/05/13 01:10:30;;;;;;;11.35;10.35;;;;;21.00;100804.00;;;;2075714;28;20224;-51
2023/05/13 01:11:34;;;;;;;10.65;9.65;;;;;21.00;100812.00;;;;2064020;28;20296;-52
2023/05/13 01:12:36;;;;;;;12.27;10.10;;;;;21.00;100811.00;;;;2062629;28;20219;-50
2023/05/13 01:13:41;;;;;;;11.35;10.15;;;;;21.00;100807.00;;;;2060602;28;20939;-51
2023/05/13 01:14:50;;;;;;;11.00;10.00;;;;;20.90;100807.00;;;;2075289;28;20646;-50
2023/05/13 01:16:05;;;;;;;11.55;10.45;;;;;21.00;100805.00;;;;2069947;28;20210;-50
2023/05/13 01:17:24;;;;;;;11.68;10.45;;;;;21.00;100798.00;;;;2065076;28;20227;-49
2023/05/13 01:18:32;;;;;;;11.20;10.20;;;;;21.00;100805.00;;;;2067943;28;20224;-50
2023/05/13 01:19:47;;;;;;;10.93;9.85;;;;;21.00;100803.00;;;;2056536;28;20215;-50
2023/05/13 01:20:48;;;;;;;11.75;10.65;;;;;21.00;100797.00;;;;2070367;28;20669;-49
2023/05/13 01:21:52;;;;;;;10.95;9.85;;;;;20.90;100805.00;;;;2059924;28;22507;-50
2023/05/13 01:22:52;;;;;;;12.32;10.68;;;;;21.00;100807.00;;;;2075820;28;20221;-50
2023/05/13 01:23:53;;;;;;;11.03;10.00;;;;;20.90;100805.00;;;;2076267;28;20692;-50
2023/05/13 01:24:53;;;;;;;11.30;10.30;;;;;21.00;100803.00;;;;2076980;28;20220;-50
2023/05/13 01:25:54;;;;;;;10.70;9.60;;;;;20.90;100800.00;;;;2084311;28;20224;-50
2023/05/13 01:26:54;;;;;;;10.77;9.63;;;;;20.90;100800.00;;;;2066484;28;20336;-51
2023/05/13 01:27:54;;;;;;;11.40;10.30;;;;;20.90;100805.00;;;;2075897;28;20297;-48
2023/05/13 01:28:55;;;;;;;12.13;10.93;;;;;20.90;100806.00;;;;2072213;28;20270;-50
2023/05/13 01:29:55;;;;;;;12.07;10.87;;;;;20.90;100802.00;;;;2075927;28;20213;-51
2023/05/13 01:30:56;;;;;;;10.77;9.70;;;;;21.00;100803.00;;;;2081910;28;20677;-51
2023/05/13 01:31:56;;;;;;;10.57;9.57;;;;;21.00;100798.00;;;;2059699;28;20298;-50
2023/05/13 01:32:56;;;;;;;10.47;9.57;;;;;21.00;100808.00;;;;2076397;28;20218;-49
2023/05/13 01:33:57;;;;;;;10.13;9.13;;;;;21.00;100802.00;;;;2075613;28;20351;-49
2023/05/13 01:34:57;;;;;;;9.93;9.03;;;;;20.90;100803.00;;;;2068287;28;20280;-50
2023/05/13 01:35:57;;;;;;;11.10;10.00;;;;;21.00;100808.00;;;;2075575;28;20206;-49
2023/05/13 01:36:58;;;;;;;10.70;9.60;;;;;20.90;100807.00;;;;2069524;28;20370;-50
2023/05/13 01:37:59;;;;;;;10.30;9.40;;;;;20.90;100805.00;;;;2075881;28;20214;-51
2023/05/13 01:38:59;;;;;;;10.90;10.00;;;;;21.00;100799.00;;;;2080051;28;20201;-50
2023/05/13 01:40:00;;;;;;;9.80;8.90;;;;;20.90;100813.00;;;;2075951;28;20452;-50
2023/05/13 01:41:00;;;;;;;11.13;10.10;;;;;20.90;100802.00;;;;2067644;28;20314;-50
2023/05/13 01:42:00;;;;;;;10.73;9.67;;;;;20.90;100800.00;;;;2058614;28;20230;-50
2023/05/13 01:43:01;;;;;;;10.40;9.40;;;;;20.90;100809.00;;;;2068267;28;20278;-51
2023/05/13 01:44:01;;;;;;;10.90;9.90;;;;;20.90;100804.00;;;;2082449;28;20304;-49
2023/05/13 01:45:02;;;;;;;11.20;10.20;;;;;20.90;100778.00;;;;2069931;28;20214;-50
2023/05/13 01:46:03;;;;;;;10.00;9.00;;;;;20.90;100803.00;;;;2079510;28;20221;-50
2023/05/13 01:47:03;;;;;;;10.47;9.50;;;;;20.90;100809.00;;;;2059206;28;20544;-51
2023/05/13 01:48:04;;;;;;;10.97;9.13;;;;;20.90;100803.00;;;;2076102;28;20245;-49
2023/05/13 01:49:06;;;;;;;10.23;9.23;;;;;20.90;100806.00;;;;2081336;28;20221;-49
2023/05/13 01:50:07;;;;;;;10.85;8.43;;;;;20.90;100809.00;;;;2075341;28;20245;-50
2023/05/13 01:51:08;;;;;;;9.77;8.87;;;;;20.90;100807.00;;;;2076700;28;20206;-50
2023/05/13 01:52:08;;;;;;;10.13;9.20;;;;;20.90;100813.00;;;;2066714;28;20556;-50
2023/05/13 01:53:08;;;;;;;10.10;9.20;;;;;20.90;100810.00;;;;2077948;28;20209;-49
2023/05/13 01:54:09;;;;;;;9.43;8.63;;;;;20.90;100811.00;;;;2080792;28;20724;-50
2023/05/13 01:55:10;;;;;;;9.00;8.07;;;;;20.90;100817.00;;;;2076252;28;20896;-50
2023/05/13 01:56:11;;;;;;;9.80;8.85;;;;;20.90;100810.00;;;;2076955;28;20225;-51
2023/05/13 01:57:11;;;;;;;8.80;7.93;;;;;20.90;100817.00;;;;2065362;28;20710;-50
2023/05/13 01:58:11;;;;;;;9.87;8.97;;;;;20.90;100809.00;;;;2070930;28;20727;-49
2023/05/13 01:59:12;;;;;;;9.73;8.73;;;;;20.90;100809.00;;;;2077714;28;20597;-50
2023/05/13 02:00:12;;;;;;;9.20;8.30;;;;;20.90;100817.00;;;;2082156;28;20663;-51
2023/05/13 02:01:13;;;;;;;9.80;8.90;;;;;20.90;100809.00;;;;2075152;28;20226;-50
2023/05/13 02:02:13;;;;;;;9.00;8.20;;;;;20.90;100815.00;;;;2068228;28;20212;-51
2023/05/13 02:03:14;;;;;;;9.80;8.90;;;;;20.90;100814.00;;;;2071633;28;20222;-50
2023/05/13 02:04:14;;;;;;;9.77;8.77;;;;;20.90;100820.00;;;;2076045;28;20752;-51
2023/05/13 02:05:15;;;;;;;8.90;8.10;;;;;20.90;100817.00;;;;2075071;28;20682;-49
2023/05/13 02:06:15;;;;;;;9.13;8.25;;;;;20.90;100816.00;;;;2070492;28;21156;-50
2023/05/13 02:07:16;;;;;;;10.20;9.30;;;;;20.90;100821.00;;;;2067340;28;20228;-50
2023/05/13 02:08:16;;;;;;;9.33;8.33;;;;;20.90;100821.00;;;;2076165;28;20304;-51
2023/05/13 02:09:17;;;;;;;8.30;7.60;;;;;20.90;100815.00;;;;2075168;28;21031;-50
2023/05/13 02:10:17;;;;;;;9.07;8.20;;;;;20.90;100822.00;;;;2076256;28;20830;-50
2023/05/13 02:11:17;;;;;;;9.13;8.23;;;;;20.90;100818.00;;;;2075904;28;20333;-51
2023/05/13 02:12:18;;;;;;;9.03;8.23;;;;;20.90;100821.00;;;;2064982;28;20224;-50
2023/05/13 02:13:18;;;;;;;9.33;8.43;;;;;20.90;100823.00;;;;2069944;28;20580;-53
2023/05/13 02:14:19;;;;;;;9.00;8.20;;;;;20.90;100821.00;;;;2076954;28;20237;-53
2023/05/13 02:15:19;;;;;;;9.10;8.27;;;;;20.90;100827.00;;;;2076149;28;20287;-49
2023/05/13 02:16:20;;;;;;;8.73;7.93;;;;;20.90;100826.00;;;;2075879;28;20452;-50
2023/05/13 02:17:21;;;;;;;9.20;8.30;;;;;20.90;100822.00;;;;2067334;28;20232;-50
2023/05/13 02:18:21;;;;;;;10.13;8.93;;;;;20.90;100827.00;;;;2075524;28;20460;-49
2023/05/13 02:19:22;;;;;;;8.70;7.90;;;;;20.90;100822.00;;;;2074160;28;20320;-50
2023/05/13 02:20:22;;;;;;;8.50;7.70;;;;;20.90;100827.00;;;;2075201;28;20225;-51
2023/05/13 02:21:22;;;;;;;8.23;7.40;;;;;20.90;100824.00;;;;2076731;28;20245;-50
2023/05/13 02:22:23;;;;;;;9.50;7.97;;;;;20.90;100824.00;;;;2064665;28;20367;-50
2023/05/13 02:23:23;;;;;;;8.50;7.80;;;;;20.90;100834.00;;;;2075562;28;20248;-51
2023/05/13 02:24:24;;;;;;;8.20;7.40;;;;;20.90;100828.00;;;;2073000;28;20222;-50
2023/05/13 02:25:25;;;;;;;8.87;8.07;;;;;20.90;100831.00;;;;2075782;28;20237;-50
2023/05/13 02:26:25;;;;;;;8.73;8.03;;;;;20.90;100829.00;;;;2073588;28;20276;-51
2023/05/13 02:27:26;;;;;;;8.33;7.63;;;;;20.90;100822.00;;;;2061318;28;20209;-51
2023/05/13 02:28:26;;;;;;;8.77;8.07;;;;;20.90;100826.00;;;;2076577;28;20216;-49
2023/05/13 02:29:26;;;;;;;8.80;8.00;;;;;20.90;100816.00;;;;2075934;28;20218;-50
2023/05/13 02:30:27;;;;;;;9.57;8.57;;;;;20.90;100820.00;;;;2075523;28;20209;-50
2023/05/13 02:31:27;;;;;;;8.97;8.17;;;;;20.90;100818.00;;;;2076456;28;20379;-50
2023/05/13 02:32:27;;;;;;;7.80;7.10;;;;;20.90;100824.00;;;;2068922;28;20251;-50
2023/05/13 02:33:28;;;;;;;8.40;7.50;;;;;20.90;100822.00;;;;2076807;28;20209;-50
2023/05/13 02:34:28;;;;;;;7.80;7.13;;;;;20.90;100819.00;;;;2075494;28;21093;-50
2023/05/13 02:35:29;;;;;;;8.60;7.80;;;;;20.90;100817.00;;;;2073401;28;20823;-50
2023/05/13 02:36:29;;;;;;;8.10;7.40;;;;;20.90;100819.00;;;;2072384;28;20213;-52
2023/05/13 02:37:29;;;;;;;8.57;7.87;;;;;20.90;100810.00;;;;2068849;28;20233;-50
2023/05/13 02:38:30;;;;;;;8.33;7.53;;;;;20.90;100817.00;;;;2076303;28;20240;-50
2023/05/13 02:39:30;;;;;;;9.57;7.00;;;;;20.90;100807.00;;;;2075587;28;20299;-50
2023/05/13 02:40:30;;;;;;;8.20;7.40;;;;;20.90;100805.00;;;;2073620;28;20230;-50
2023/05/13 02:41:31;;;;;;;8.03;7.23;;;;;20.90;100799.00;;;;2066061;28;20208;-49
2023/05/13 02:42:31;;;;;;;8.17;7.47;;;;;20.90;100800.00;;;;2076617;28;20205;-50
2023/05/13 02:43:32;;;;;;;8.30;7.50;;;;;20.90;100810.00;;;;2072626;28;20213;-50
2023/05/13 02:44:32;;;;;;;8.17;7.20;;;;;20.90;100813.00;;;;2075297;28;20217;-50
2023/05/13 02:45:32;;;;;;;8.73;7.90;;;;;20.90;100806.00;;;;2076669;28;20605;-50
2023/05/13 02:46:33;;;;;;;7.50;6.90;;;;;20.80;100806.00;;;;2066069;28;20209;-50
2023/05/13 02:47:33;;;;;;;7.80;7.10;;;;;20.90;100805.00;;;;2076408;28;20210;-50
2023/05/13 02:48:33;;;;;;;9.53;7.20;;;;;20.90;100812.00;;;;2072198;28;20241;-50
2023/05/13 02:49:34;;;;;;;8.03;7.33;;;;;20.90;100812.00;;;;2075775;28;20209;-50
2023/05/13 02:50:34;;;;;;;7.90;7.20;;;;;20.80;100811.00;;;;2074142;28;20210;-50
2023/05/13 02:51:34;;;;;;;7.40;6.70;;;;;20.90;100810.00;;;;2061805;28;20329;-50
2023/05/13 02:52:35;;;;;;;7.40;6.80;;;;;20.90;100811.00;;;;2070204;28;20297;-50
2023/05/13 02:53:36;;;;;;;8.70;7.35;;;;;20.80;100809.00;;;;2072547;28;20227;-50
2023/05/13 02:54:36;;;;;;;7.50;6.80;;;;;20.90;100813.00;;;;2076723;28;20220;-50
2023/05/13 02:55:36;;;;;;;7.73;7.03;;;;;20.80;100809.00;;;;2075944;28;20216;-50
2023/05/13 02:56:37;;;;;;;8.20;7.50;;;;;20.90;100805.00;;;;2066718;28;20221;-50
2023/05/13 02:57:37;;;;;;;7.13;6.43;;;;;20.80;100803.00;;;;2072128;28;20217;-50
2023/05/13 02:58:37;;;;;;;7.77;7.07;;;;;20.80;100805.00;;;;2072566;28;20225;-49
2023/05/13 02:59:38;;;;;;;7.37;6.77;;;;;20.80;100802.00;;;;2076759;28;20267;-50
2023/05/13 03:00:38;;;;;;;6.90;6.20;;;;;20.80;100802.00;;;;2075712;28;20224;-49
2023/05/13 03:01:38;;;;;;;7.53;6.93;;;;;20.80;100802.00;;;;2062117;28;20233;-50
2023/05/13 03:02:39;;;;;;;7.27;6.67;;;;;20.80;100801.00;;;;2071740;28;20341;-50
2023/05/13 03:03:39;;;;;;;8.70;7.90;;;;;20.80;100797.00;;;;2073044;28;20218;-51
2023/05/13 03:04:40;;;;;;;7.60;6.90;;;;;20.80;100804.00;;;;2074956;28;20294;-51
2023/05/13 03:05:40;;;;;;;7.80;7.10;;;;;20.80;100798.00;;;;2076396;28;20270;-49
2023/05/13 03:06:40;;;;;;;7.53;6.83;;;;;20.80;100802.00;;;;2065928;28;20218;-50
2023/05/13 03:07:41;;;;;;;7.00;6.40;;;;;20.80;100802.00;;;;2071671;28;20218;-50
2023/05/13 03:08:41;;;;;;;7.27;6.57;;;;;20.80;100797.00;;;;2072617;28;20251;-50
2023/05/13 03:09:41;;;;;;;6.93;6.33;;;;;20.80;100801.00;;;;2075941;28;20217;-50
2023/05/13 03:10:42;;;;;;;7.30;6.60;;;;;20.80;100797.00;;;;2076052;28;20252;-50
2023/05/13 03:11:42;;;;;;;7.50;6.90;;;;;20.80;100798.00;;;;2066115;28;20229;-50
2023/05/13 03:12:42;;;;;;;7.70;6.57;;;;;20.80;100800.00;;;;2076042;28;20226;-49
2023/05/13 03:13:43;;;;;;;7.93;7.13;;;;;20.80;100802.00;;;;2072426;28;20276;-49
2023/05/13 03:14:43;;;;;;;7.60;6.60;;;;;20.80;100799.00;;;;2080951;28;20692;-49
2023/05/13 03:15:43;;;;;;;8.07;7.37;;;;;20.80;100800.00;;;;2076849;28;20670;-50
2023/05/13 03:16:44;;;;;;;6.90;6.30;;;;;20.80;100800.00;;;;2069399;28;20639;-50
2023/05/13 03:17:44;;;;;;;6.87;6.17;;;;;20.80;100801.00;;;;2089434;28;20227;-50
2023/05/13 03:18:44;;;;;;;7.13;6.53;;;;;20.80;100805.00;;;;2076146;28;20225;-50
2023/05/13 03:19:45;;;;;;;6.87;6.27;;;;;20.80;100802.00;;;;2079393;28;20263;-50
2023/05/13 03:20:45;;;;;;;6.60;6.10;;;;;20.80;100807.00;;;;2075327;28;20295;-49
2023/05/13 03:21:45;;;;;;;7.47;6.87;;;;;20.80;100806.00;;;;2068765;28;20221;-50
2023/05/13 03:22:46;;;;;;;7.67;6.97;;;;;20.80;100800.00;;;;2083949;28;20240;-49
2023/05/13 03:23:46;;;;;;;6.80;6.23;;;;;20.80;100806.00;;;;2065244;28;20309;-51
2023/05/13 03:24:47;;;;;;;7.40;6.63;;;;;20.80;100805.00;;;;2067185;28;20222;-50
2023/05/13 03:25:47;;;;;;;6.90;6.30;;;;;20.80;100796.00;;;;2076221;28;20229;-50
2023/05/13 03:26:48;;;;;;;7.60;6.97;;;;;20.80;100797.00;;;;2067320;28;20753;-49
2023/05/13 03:27:48;;;;;;;6.70;6.10;;;;;20.80;100778.00;;;;2074949;28;20225;-50
2023/05/13 03:28:48;;;;;;;7.57;6.90;;;;;20.80;100800.00;;;;2075165;28;20772;-50
2023/05/13 03:29:49;;;;;;;6.70;6.10;;;;;20.80;100796.00;;;;2073841;28;20248;-51
2023/05/13 03:30:49;;;;;;;8.67;6.13;;;;;20.80;100808.00;;;;2074747;28;20218;-51
2023/05/13 03:31:51;;;;;;;6.80;6.20;;;;;20.80;100798.00;;;;2060688;28;20234;-55
2023/05/13 03:32:51;;;;;;;6.50;6.00;;;;;20.80;100798.00;;;;2071686;28;20307;-50
2023/05/13 03:33:52;;;;;;;6.83;6.33;;;;;20.80;100799.00;;;;2076590;28;20686;-50
2023/05/13 03:34:52;;;;;;;6.30;5.80;;;;;20.80;100799.00;;;;2076763;28;21025;-51
2023/05/13 03:35:53;;;;;;;7.33;6.63;;;;;20.80;100804.00;;;;2077155;28;20626;-49
2023/05/13 03:36:53;;;;;;;6.87;6.27;;;;;20.80;100800.00;;;;2061938;28;20595;-50
2023/05/13 03:37:53;;;;;;;6.10;5.60;;;;;20.80;100801.00;;;;2077088;28;20213;-49
2023/05/13 03:38:54;;;;;;;7.67;6.30;;;;;20.80;100804.00;;;;2076975;28;20573;-50
2023/05/13 03:39:54;;;;;;;7.03;6.40;;;;;20.80;100805.00;;;;2074559;28;20216;-50
2023/05/13 03:40:54;;;;;;;7.00;5.73;;;;;20.80;100797.00;;;;2078253;28;20249;-50
2023/05/13 03:41:55;;;;;;;6.63;5.97;;;;;20.80;100797.00;;;;2067190;28;20221;-50
2023/05/13 03:42:55;;;;;;;7.07;6.37;;;;;20.80;100797.00;;;;2076665;28;20607;-50
2023/05/13 03:43:55;;;;;;;6.83;6.10;;;;;20.80;100798.00;;;;2070904;28;20962;-52
2023/05/13 03:44:56;;;;;;;8.20;6.10;;;;;20.80;100801.00;;;;2077121;28;21109;-52
2023/05/13 03:45:56;;;;;;;7.07;6.47;;;;;20.80;100803.00;;;;2077802;28;20990;-50
2023/05/13 03:46:56;;;;;;;6.47;5.97;;;;;20.80;100801.00;;;;2067689;28;21003;-49
2023/05/13 03:47:57;;;;;;;6.90;6.20;;;;;20.80;100800.00;;;;2077539;28;20209;-49
2023/05/13 03:48:57;;;;;;;6.10;5.60;;;;;20.80;100805.00;;;;2072454;28;20302;-50
2023/05/13 03:49:57;;;;;;;6.83;6.23;;;;;20.80;100796.00;;;;2076037;28;20309;-50
2023/05/13 03:50:58;;;;;;;7.10;6.50;;;;;20.80;100799.00;;;;2076341;28;20210;-50
2023/05/13 03:51:58;;;;;;;6.63;6.03;;;;;20.80;100802.00;;;;2067270;28;20230;-50
2023/05/13 03:52:58;;;;;;;6.20;5.60;;;;;20.80;100796.00;;;;2077173;28;20223;-50
2023/05/13 03:53:59;;;;;;;8.20;6.10;;;;;20.80;100800.00;;;;2080462;28;20214;-49
2023/05/13 03:54:59;;;;;;;7.13;6.50;;;;;20.80;100800.00;;;;2069912;28;20217;-50
2023/05/13 03:56:00;;;;;;;11.13;6.57;;;;;20.80;100801.00;;;;2076355;28;20224;-51
2023/05/13 03:57:00;;;;;;;6.20;5.70;;;;;20.80;100800.00;;;;2065871;28;20309;-51
2023/05/13 03:58:13;;;;;;;7.27;6.30;;;;;20.80;100805.00;;;;2077482;28;20259;-50
2023/05/13 03:59:13;;;;;;;6.47;5.90;;;;;20.80;100803.00;;;;2074434;28;20214;-49
2023/05/13 04:00:14;;;;;;;8.80;5.40;;;;;20.80;100811.00;;;;2076029;28;20563;-50
2023/05/13 04:01:14;;;;;;;6.23;5.63;;;;;20.80;100810.00;;;;2069486;28;20599;-50
2023/05/13 04:02:15;;;;;;;6.70;6.20;;;;;20.70;100812.00;;;;2067907;28;20326;-50
2023/05/13 04:03:16;;;;;;;6.03;5.43;;;;;20.80;100816.00;;;;2078843;28;20670;-50
2023/05/13 04:04:16;;;;;;;6.10;5.60;;;;;20.80;100811.00;;;;2074803;28;20218;-50
2023/05/13 04:05:16;;;;;;;6.80;6.20;;;;;20.80;100810.00;;;;2076370;28;20339;-50
2023/05/13 04:06:17;;;;;;;6.27;5.77;;;;;20.80;100819.00;;;;2070774;28;20214;-50
2023/05/13 04:07:17;;;;;;;6.47;5.90;;;;;20.80;100808.00;;;;2067545;28;20222;-50
2023/05/13 04:08:18;;;;;;;6.90;6.30;;;;;20.70;100812.00;;;;2077431;28;20222;-50
2023/05/13 04:09:18;;;;;;;7.10;6.50;;;;;20.70;100816.00;;;;2076596;28;20221;-49
2023/05/13 04:10:18;;;;;;;6.40;5.90;;;;;20.70;100812.00;;;;2077142;28;20227;-50
2023/05/13 04:11:19;;;;;;;5.90;5.47;;;;;20.80;100817.00;;;;2075446;28;20225;-50
2023/05/13 04:12:19;;;;;;;6.67;6.17;;;;;20.80;100815.00;;;;2067702;28;20241;-50
2023/05/13 04:13:20;;;;;;;6.90;6.20;;;;;20.60;100820.00;;;;2076906;28;20460;-49
2023/05/13 04:14:20;;;;;;;5.93;5.43;;;;;20.80;100826.00;;;;2078586;28;22183;-51
2023/05/13 04:15:21;;;;;;;6.60;6.00;;;;;20.80;100824.00;;;;2079743;28;20224;-50
2023/05/13 04:16:21;;;;;;;6.07;5.47;;;;;20.80;100811.00;;;;2077503;28;20698;-50
2023/05/13 04:17:21;;;;;;;6.27;5.77;;;;;20.80;100819.00;;;;2069707;28;20948;-50
2023/05/13 04:18:22;;;;;;;6.17;5.67;;;;;20.70;100818.00;;;;2081287;28;20217;-50
2023/05/13 04:19:22;;;;;;;7.40;6.70;;;;;20.80;100819.00;;;;2078769;28;20248;-50
2023/05/13 04:20:22;;;;;;;6.03;5.47;;;;;20.70;100822.00;;;;2077319;28;20222;-49
2023/05/13 04:21:23;;;;;;;5.90;5.37;;;;;20.70;100822.00;;;;2077268;28;20221;-49
2023/05/13 04:22:23;;;;;;;5.87;5.37;;;;;20.70;100824.00;;;;2069805;28;20221;-50
2023/05/13 04:23:23;;;;;;;6.40;5.80;;;;;20.70;100822.00;;;;2078397;28;20293;-50
2023/05/13 04:24:24;;;;;;;6.60;6.10;;;;;20.70;100821.00;;;;2077539;28;20225;-50
2023/05/13 04:25:24;;;;;;;5.83;5.43;;;;;20.70;100826.00;;;;2077182;28;21130;-50
2023/05/13 04:26:24;;;;;;;6.40;5.80;;;;;20.70;100817.00;;;;2077546;28;20693;-50
2023/05/13 04:27:25;;;;;;;6.30;5.80;;;;;20.70;100824.00;;;;2065868;28;20583;-50
2023/05/13 04:28:25;;;;;;;6.90;5.73;;;;;20.70;100829.00;;;;2074663;28;20433;-50
2023/05/13 04:29:25;;;;;;;5.60;5.20;;;;;20.70;100823.00;;;;2070596;28;20210;-50
2023/05/13 04:30:25;;;;;;;6.23;5.63;;;;;20.70;100825.00;;;;2076885;28;20279;-50
2023/05/13 04:31:26;;;;;;;6.03;5.53;;;;;20.70;100828.00;;;;2082742;28;20229;-50
2023/05/13 04:32:26;;;;;;;6.43;5.80;;;;;20.70;100825.00;;;;2071762;28;20257;-50
2023/05/13 04:33:26;;;;;;;6.50;5.90;;;;;20.70;100824.00;;;;2077670;28;20226;-50
2023/05/13 04:34:27;;;;;;;6.40;5.03;;;;;20.70;100828.00;;;;2075112;28;20221;-49
2023/05/13 04:35:27;;;;;;;5.77;5.27;;;;;20.70;100833.00;;;;2077068;28;20308;-49
2023/05/13 04:36:27;;;;;;;6.00;5.50;;;;;20.70;100833.00;;;;2080178;28;20213;-50
2023/05/13 04:37:28;;;;;;;6.07;5.47;;;;;20.80;100834.00;;;;2066615;28;20226;-50
2023/05/13 04:38:29;;;;;;;5.87;5.37;;;;;20.70;100832.00;;;;2076817;28;20256;-50
2023/05/13 04:39:30;;;;;;;6.20;5.60;;;;;20.70;100829.00;;;;2076260;28;20217;-50
2023/05/13 04:40:30;;;;;;;5.70;5.20;;;;;20.80;100834.00;;;;2077891;28;20260;-50
2023/05/13 04:41:30;;;;;;;5.60;5.10;;;;;20.70;100835.00;;;;2071451;28;20197;-50
2023/05/13 04:42:31;;;;;;;6.17;5.67;;;;;20.80;100832.00;;;;2074035;28;20206;-50
2023/05/13 04:43:31;;;;;;;6.33;5.83;;;;;20.80;100826.00;;;;2069567;28;20281;-50
2023/05/13 04:44:32;;;;;;;6.10;5.60;;;;;20.80;100834.00;;;;2073449;28;20208;-49
2023/05/13 04:45:32;;;;;;;5.67;5.17;;;;;20.70;100843.00;;;;2076842;28;20292;-50
2023/05/13 04:46:33;;;;;;;7.10;5.70;;;;;20.80;100833.00;;;;2067166;28;20445;-50
2023/05/13 04:47:34;;;;;;;6.37;5.77;;;;;20.80;100809.00;;;;2077453;28;20581;-50
2023/05/13 04:48:34;;;;;;;7.80;5.60;;;;;20.70;100833.00;;;;2080943;28;20851;-49
2023/05/13 04:49:34;;;;;;;6.43;5.37;;;;;20.80;100810.00;;;;2073055;28;20458;-50
2023/05/13 04:50:35;;;;;;;6.20;5.70;;;;;20.80;100832.00;;;;2072984;28;20754;-50
2023/05/13 04:51:35;;;;;;;5.57;5.07;;;;;20.80;100833.00;;;;2066626;28;20651;-50
2023/05/13 04:52:36;;;;;;;5.90;5.40;;;;;20.70;100829.00;;;;2074163;28;20209;-51
2023/05/13 04:53:36;;;;;;;5.67;5.23;;;;;20.80;100831.00;;;;2074169;28;20224;-50
2023/05/13 04:54:38;;;;;;;6.10;5.57;;;;;20.80;100837.00;;;;2077364;28;20686;-50
2023/05/13 04:55:38;;;;;;;6.05;5.55;;;;;20.80;100830.00;;;;2073869;28;20202;-50
2023/05/13 04:56:38;;;;;;;6.10;5.60;;;;;20.80;100844.00;;;;2061473;28;20218;-49
2023/05/13 04:57:39;;;;;;;7.20;5.57;;;;;20.70;100837.00;;;;2071519;28;20220;-50
2023/05/13 04:58:39;;;;;;;5.97;5.47;;;;;20.70;100833.00;;;;2072779;28;20217;-50
2023/05/13 04:59:40;;;;;;;5.83;5.33;;;;;20.80;100836.00;;;;2080424;28;20892;-49